メインページ
METAR-TAF:

METAR-TAF

空港 :

バグダード国際空港

バグダード, イラク

緯度: 33-15-45N, 経度: 44-14-04E, 海抜: 35m

現時点の気象観測

当レポートは10分前の18:00(UTC)に作成
東/南東の風 8kt
気温 14°C
湿度 47%
気圧 1018 hPa
視程10km以上
1,500メートル以下は雲なし、積乱雲なし

METAR: ORBI 171800Z 11008KT CAVOK 14/03 Q1018 NOSIG

時間: 21:10 (18:10 UTC)

予報

当レポートは2時間10分前の16:00(UTC)に作成
予報は17日の 18時(UTC)から 18日の 18時(UTC)まで有効
西の風 10kt
視程: 8000m
17日の 23時(UTC)から 18日の 01時(UTC)まで徐々に
高度2500ftの雲はほとんどない, 積乱雲.

TAF: ORBI 171600Z 1718/1818 28010KT 8000 NSC BECMG 1723/1801 -TSSHRA FEW025CB

4,000以上の空港の気象観測と天気予報(METAR報とTAF報)

利用可能な観測所は地図上に黄色い丸と赤い丸で示す。

丸の上にカーソルを重ねると観測所名を参照できる。

次にクリックすると気象観測と天気予報を参照できる。

マップの切り替え:黒色「×」印の緑ボタンをクリックして拡大、「-」印の緑ボタンをクリックして縮小、緑色の三角印をクリックして隣りの地図に切り替え


METAR-TAF: